Grande Europa — ICGE — position and weather

sailwx.info

Track history (hours):
 
Tides and Currents Weather Stations Pressure Air Temp Water Temp Dewpoint Dewpoint Depression Visibility Wind Speed Wind Dir Waves Ship Positions

Grande Europa

Last reported at 2017-Dec-10 11:27 UTC. Time now 2017-Dec-14 09:53 UTC.
Position N 31°51' E 034°38'.

Length 183 m; draft 7.8 m.

Type: Ship. MMSI: 247206000.

Date/timePositionNaut miles runAvg speedWind from/ knotsBaromVisibWave heightAir tempDewpointWater temp
2017-Dec-10 11:27N 31°51' E 034°38'18411.8
2017-Dec-09 19:54N 34°37' E 033°04'3 6.7
2017-Dec-09 19:30N 34°39' E 033°02'1 2.0
2017-Dec-09 18:58N 34°39' E 033°01'0 0.0
2017-Dec-09 18:28N 34°39' E 033°01'0 0.0
2017-Dec-09 17:58N 34°39' E 033°01'0 0.0
2017-Dec-09 17:28N 34°39' E 033°01'0 0.0
2017-Dec-09 16:58N 34°39' E 033°01'0 0.0
2017-Dec-09 16:28N 34°39' E 033°01'0 0.0
2017-Dec-09 15:58N 34°39' E 033°01'0 0.0
2017-Dec-09 15:28N 34°39' E 033°01'0 0.0
2017-Dec-09 15:00N 34°39' E 033°01'0 0.6
2017-Dec-09 14:30N 34°39' E 033°01'2 4.4
2017-Dec-09 14:00N 34°38' E 033°04'253 5.8
2017-Dec-07 18:30N 35°03' E 027°56'8918.6
2017-Dec-07 13:42N 36°20' E 026°60'618.6
2017-Dec-07 13:23N 36°24' E 026°55'718.6
2017-Dec-07 13:00N 36°29' E 026°49'918.5
2017-Dec-07 12:30N 36°36' E 026°40'918.5
2017-Dec-07 12:00N 36°42' E 026°32'919.0
2017-Dec-07 11:30N 36°48' E 026°23'918.7
2017-Dec-07 11:00N 36°55' E 026°15'918.5
2017-Dec-07 10:30N 37°03' E 026°09'918.7
2017-Dec-07 10:00N 37°11' E 026°03'918.7
2017-Dec-07 09:30N 37°19' E 025°57'918.7
2017-Dec-07 09:00N 37°27' E 025°52'918.2
2017-Dec-07 08:30N 37°36' E 025°49'917.7
2017-Dec-07 08:00N 37°45' E 025°49'  
2017-Dec-04 06:57N 37°49' E 016°01'818.4
2017-Dec-04 06:30N 37°51' E 015°51'918.2
2017-Dec-04 06:00N 37°55' E 015°40'917.8
2017-Dec-04 05:30N 38°02' E 015°35'916.9
2017-Dec-04 05:00N 38°11' E 015°36'713.0
2017-Dec-04 04:27N 38°17' E 015°40'714.9
2017-Dec-04 04:00N 38°23' E 015°37'815.4
2017-Dec-04 03:30N 38°30' E 015°33'815.3
2017-Dec-04 03:00N 38°38' E 015°30'815.4
2017-Dec-04 02:30N 38°45' E 015°27'915.5
2017-Dec-04 01:56N 38°53' E 015°23'3115.6
2017-Dec-03 23:56N 39°22' E 015°07'715.5
2017-Dec-03 23:30N 39°28' E 015°04'1915.4
2017-Dec-03 22:15N 39°46' E 014°55'715.2
2017-Dec-03 21:46N 39°53' E 014°52'415.2
2017-Dec-03 21:30N 39°57' E 014°50'40 2.8
2017-Dec-03 07:05N 40°36' E 014°42'114.9
2017-Dec-03 07:00N 40°35' E 014°41'25218.2
2017-Dec-02 17:07N 38°59' E 009°38'218.0
2017-Dec-02 17:00N 38°58' E 009°35'918.2
2017-Dec-02 16:30N 38°55' E 009°24'918.8
2017-Dec-02 16:00N 38°52' E 009°13'918.8
2017-Dec-02 15:30N 38°50' E 009°01'1018.3
2017-Dec-02 14:59N 38°47' E 008°49'26217.0
2017-Dec-01 23:37N 38°60' E 003°14'216.6
2017-Dec-01 23:30N 38°60' E 003°11'816.9
2017-Dec-01 23:00N 39°00' E 003°00'917.3
2017-Dec-01 22:30N 39°01' E 002°49'816.9
2017-Dec-01 22:00N 39°03' E 002°38'4417.0
2017-Dec-01 19:25N 39°10' E 001°43'123 5.6
2017-Nov-30 21:32N 37°50' W 000°17'017.0
2017-Nov-30 21:30N 37°50' W 000°17'917.1
2017-Nov-30 21:00N 37°43' W 000°23'917.1
2017-Nov-30 20:30N 37°36' W 000°29'916.8
2017-Nov-30 20:00N 37°29' W 000°36'816.8
2017-Nov-30 19:30N 37°24' W 000°44'816.9
2017-Nov-30 19:00N 37°18' W 000°52'916.8
2017-Nov-30 18:30N 37°13' W 000°60'  
Track history (hours):
 
Tides and Currents Weather Stations Pressure Air Temp Water Temp Dewpoint Dewpoint Depression Visibility Wind Speed Wind Dir Waves Ship Positions

Grande Europa

Last reported at 2017-Dec-10 11:27 UTC. Time now 2017-Dec-14 09:53 UTC.
Position N 31°51' E 034°38'.

Length 183 m; draft 7.8 m.

Type: Ship. MMSI: 247206000.

Date/timePositionNaut miles runAvg speedWind from/ knotsBaromVisibWave heightAir tempDewpointWater temp
2017-Dec-10 11:27N 31°51' E 034°38'18411.8
2017-Dec-09 19:54N 34°37' E 033°04'3 6.7
2017-Dec-09 19:30N 34°39' E 033°02'1 2.0
2017-Dec-09 18:58N 34°39' E 033°01'0 0.0
2017-Dec-09 18:28N 34°39' E 033°01'0 0.0
2017-Dec-09 17:58N 34°39' E 033°01'0 0.0
2017-Dec-09 17:28N 34°39' E 033°01'0 0.0
2017-Dec-09 16:58N 34°39' E 033°01'0 0.0
2017-Dec-09 16:28N 34°39' E 033°01'0 0.0
2017-Dec-09 15:58N 34°39' E 033°01'0 0.0
2017-Dec-09 15:28N 34°39' E 033°01'0 0.0
2017-Dec-09 15:00N 34°39' E 033°01'0 0.6
2017-Dec-09 14:30N 34°39' E 033°01'2 4.4
2017-Dec-09 14:00N 34°38' E 033°04'253 5.8
2017-Dec-07 18:30N 35°03' E 027°56'8918.6
2017-Dec-07 13:42N 36°20' E 026°60'618.6
2017-Dec-07 13:23N 36°24' E 026°55'718.6
2017-Dec-07 13:00N 36°29' E 026°49'918.5
2017-Dec-07 12:30N 36°36' E 026°40'918.5
2017-Dec-07 12:00N 36°42' E 026°32'919.0
2017-Dec-07 11:30N 36°48' E 026°23'918.7
2017-Dec-07 11:00N 36°55' E 026°15'918.5
2017-Dec-07 10:30N 37°03' E 026°09'918.7
2017-Dec-07 10:00N 37°11' E 026°03'918.7
2017-Dec-07 09:30N 37°19' E 025°57'918.7
2017-Dec-07 09:00N 37°27' E 025°52'918.2
2017-Dec-07 08:30N 37°36' E 025°49'917.7
2017-Dec-07 08:00N 37°45' E 025°49'  
2017-Dec-04 06:57N 37°49' E 016°01'818.4
2017-Dec-04 06:30N 37°51' E 015°51'918.2
2017-Dec-04 06:00N 37°55' E 015°40'917.8
2017-Dec-04 05:30N 38°02' E 015°35'916.9
2017-Dec-04 05:00N 38°11' E 015°36'713.0
2017-Dec-04 04:27N 38°17' E 015°40'714.9
2017-Dec-04 04:00N 38°23' E 015°37'815.4
2017-Dec-04 03:30N 38°30' E 015°33'815.3
2017-Dec-04 03:00N 38°38' E 015°30'815.4
2017-Dec-04 02:30N 38°45' E 015°27'915.5
2017-Dec-04 01:56N 38°53' E 015°23'3115.6
2017-Dec-03 23:56N 39°22' E 015°07'715.5
2017-Dec-03 23:30N 39°28' E 015°04'1915.4
2017-Dec-03 22:15N 39°46' E 014°55'715.2
2017-Dec-03 21:46N 39°53' E 014°52'415.2
2017-Dec-03 21:30N 39°57' E 014°50'40 2.8
2017-Dec-03 07:05N 40°36' E 014°42'114.9
2017-Dec-03 07:00N 40°35' E 014°41'25218.2
2017-Dec-02 17:07N 38°59' E 009°38'218.0
2017-Dec-02 17:00N 38°58' E 009°35'918.2
2017-Dec-02 16:30N 38°55' E 009°24'918.8
2017-Dec-02 16:00N 38°52' E 009°13'918.8
2017-Dec-02 15:30N 38°50' E 009°01'1018.3
2017-Dec-02 14:59N 38°47' E 008°49'26217.0
2017-Dec-01 23:37N 38°60' E 003°14'216.6
2017-Dec-01 23:30N 38°60' E 003°11'816.9
2017-Dec-01 23:00N 39°00' E 003°00'917.3
2017-Dec-01 22:30N 39°01' E 002°49'816.9
2017-Dec-01 22:00N 39°03' E 002°38'4417.0
2017-Dec-01 19:25N 39°10' E 001°43'123 5.6
2017-Nov-30 21:32N 37°50' W 000°17'017.0
2017-Nov-30 21:30N 37°50' W 000°17'917.1
2017-Nov-30 21:00N 37°43' W 000°23'917.1
2017-Nov-30 20:30N 37°36' W 000°29'916.8
2017-Nov-30 20:00N 37°29' W 000°36'816.8
2017-Nov-30 19:30N 37°24' W 000°44'816.9
2017-Nov-30 19:00N 37°18' W 000°52'916.8
2017-Nov-30 18:30N 37°13' W 000°60'  

Dump ship's entire track history